Terminal Aerodrome Forecast
Issued by NWS

Home | Current Version | Previous Version | Text Only | Print | Product List | Glossary On
Versions: 1 2 3 4 5 6 7 8 9 10 11 12 13 14 15 16 17
000
FTUS43 KPAH 300500
TAFCGI
TAF
KCGI 300520Z 3006/3106 19006KT P6SM -SHRA OVC120
     FM301100 19006KT 4SM SHRA BR OVC050
     FM302100 18008KT P6SM BKN030=

USA.gov is the U.S. government's official web portal to all federal, state and local government web resources and services.